Time;durP1;ratioP1;P1;durP2;ratioP2;P2;SDS_P1;SDS_P2;PMS_P1;PMS_P2;Temp;Humidity;BMP_temperature;BMP_pressure;BME280_temperature;BME280_humidity;BME280_pressure;Samples;Min_cycle;Max_cycle;Signal;HPM_P1;HPM_P2
2023/03/06 00:00:53;;;;;;;15.60;9.67;;;;;;;17.18;40.45;99625.84;5101023;28;20784;-61
2023/03/06 00:03:19;;;;;;;14.40;7.93;;;;;;;17.29;40.87;99626.81;5092823;28;20174;-61
2023/03/06 00:05:44;;;;;;;23.67;8.67;;;;;;;17.46;40.78;99631.91;5111265;28;20438;-61
2023/03/06 00:08:10;;;;;;;14.70;8.03;;;;;;;17.60;40.75;99631.28;5110865;28;20221;-60
2023/03/06 00:10:35;;;;;;;10.73;7.60;;;;;;;17.75;40.67;99628.16;5111433;28;20202;-60
2023/03/06 00:13:03;;;;;;;11.70;7.30;;;;;;;17.86;40.63;99631.94;5112555;28;20164;-60
2023/03/06 00:15:29;;;;;;;9.60;6.90;;;;;;;17.93;41.23;99631.22;5111790;28;20723;-60
2023/03/06 00:17:54;;;;;;;12.60;7.50;;;;;;;17.93;41.00;99628.34;5112434;28;20522;-60
2023/03/06 00:20:20;;;;;;;9.27;5.43;;;;;;;17.85;41.42;99627.47;5112236;28;20247;-60
2023/03/06 00:22:46;;;;;;;10.03;6.17;;;;;;;17.83;41.63;99615.63;5110413;28;20675;-60
2023/03/06 00:25:12;;;;;;;11.47;6.00;;;;;;;17.78;41.83;99627.41;5112233;28;20194;-60
2023/03/06 00:27:38;;;;;;;10.77;6.70;;;;;;;17.79;41.91;99628.19;5111782;28;20209;-60
2023/03/06 00:30:04;;;;;;;11.17;5.93;;;;;;;17.68;42.55;99616.69;5112218;27;20973;-60
2023/03/06 00:32:29;;;;;;;9.00;6.33;;;;;;;17.64;42.51;99618.69;5112105;28;20173;-60
2023/03/06 00:34:54;;;;;;;8.00;5.10;;;;;;;17.60;42.84;99620.66;5111108;28;20189;-60
2023/03/06 00:37:21;;;;;;;10.20;5.90;;;;;;;17.59;43.08;99615.34;5111911;28;20173;-60
2023/03/06 00:39:48;;;;;;;13.73;6.77;;;;;;;17.53;43.30;99619.78;5110263;28;20238;-60
2023/03/06 00:42:14;;;;;;;9.50;5.40;;;;;;;17.45;43.44;99618.88;5107683;28;20439;-60
2023/03/06 00:44:39;;;;;;;9.20;5.27;;;;;;;17.44;43.89;99625.78;5110715;28;20930;-60
2023/03/06 00:47:04;;;;;;;9.70;5.20;;;;;;;17.39;43.97;99613.91;5110460;28;20238;-60
2023/03/06 00:49:30;;;;;;;10.43;5.80;;;;;;;17.36;44.11;99617.50;5110407;28;20166;-61
2023/03/06 00:51:55;;;;;;;7.70;4.93;;;;;;;17.36;44.82;99609.75;5109746;28;20154;-61
2023/03/06 00:54:21;;;;;;;7.00;4.80;;;;;;;17.30;44.59;99614.19;5109877;28;20250;-60
2023/03/06 00:56:46;;;;;;;8.87;4.90;;;;;;;17.26;44.86;99607.59;5111466;28;20170;-60
2023/03/06 00:59:12;;;;;;;8.80;5.57;;;;;;;17.25;44.78;99605.97;5111360;28;20531;-60
2023/03/06 01:01:37;;;;;;;11.90;4.93;;;;;;;17.28;45.58;99595.81;5110351;27;20218;-60
2023/03/06 01:04:02;;;;;;;8.13;5.40;;;;;;;17.24;44.94;99592.91;5111522;27;20255;-60
2023/03/06 01:06:28;;;;;;;7.90;4.70;;;;;;;17.23;45.25;99594.13;5091016;28;20231;-59
2023/03/06 01:08:53;;;;;;;8.90;5.13;;;;;;;17.21;45.45;99595.72;5091019;28;20218;-60
2023/03/06 01:11:19;;;;;;;7.80;4.60;;;;;;;17.26;45.56;99596.19;5095871;28;20182;-60
2023/03/06 01:13:44;;;;;;;9.63;5.53;;;;;;;17.29;45.48;99588.88;5111671;28;20165;-60
2023/03/06 01:16:13;;;;;;;7.10;5.00;;;;;;;17.27;45.69;99585.63;5111102;28;20178;-60
2023/03/06 01:18:39;;;;;;;6.90;3.93;;;;;;;17.25;45.58;99577.44;5111151;28;20209;-60
2023/03/06 01:21:05;;;;;;;7.17;4.40;;;;;;;17.26;45.70;99579.06;5111021;28;20914;-59
2023/03/06 01:23:31;;;;;;;6.97;4.53;;;;;;;17.27;45.47;99579.91;5110283;28;20185;-59
2023/03/06 01:25:56;;;;;;;8.67;4.80;;;;;;;17.27;45.71;99568.50;5109965;28;20185;-60
2023/03/06 01:28:21;;;;;;;7.40;4.90;;;;;;;17.24;45.85;99563.56;5113655;27;20181;-60
2023/03/06 01:30:47;;;;;;;7.60;4.60;;;;;;;17.22;45.97;99566.00;5111351;28;20228;-59
2023/03/06 01:33:12;;;;;;;8.07;4.53;;;;;;;17.22;46.21;99563.13;5110480;28;20190;-60
2023/03/06 01:35:38;;;;;;;7.37;4.90;;;;;;;17.16;46.36;99561.84;5110927;28;20165;-60
2023/03/06 01:38:03;;;;;;;9.83;4.27;;;;;;;17.16;46.26;99554.09;5110646;27;20187;-60
2023/03/06 01:40:32;;;;;;;7.00;4.50;;;;;;;17.16;46.09;99559.00;5110453;28;20699;-60
2023/03/06 01:42:58;;;;;;;8.63;4.57;;;;;;;17.14;46.17;99553.69;5109200;28;20185;-60
2023/03/06 01:45:23;;;;;;;9.10;5.00;;;;;;;17.14;47.13;99553.69;5109217;28;20439;-60
2023/03/06 01:47:49;;;;;;;9.60;4.50;;;;;;;17.13;46.34;99540.63;5111116;28;20170;-60
2023/03/06 01:50:14;;;;;;;9.30;4.60;;;;;;;17.10;46.69;99534.91;5111122;27;20177;-60
2023/03/06 01:52:46;;;;;;;8.73;4.83;;;;;;;17.08;46.93;99535.28;5110961;28;20173;-59
2023/03/06 01:55:25;;;;;;;6.30;4.07;;;;;;;17.13;46.99;99525.53;5109352;28;20166;-60
2023/03/06 01:57:52;;;;;;;7.07;3.90;;;;;;;17.06;46.51;99526.28;5110502;28;20419;-60
2023/03/06 02:00:20;;;;;;;4.63;3.40;;;;;;;17.07;46.86;99522.25;5103624;28;20553;-60
2023/03/06 02:03:15;;;;;;;8.63;4.87;;;;;;;17.11;46.74;99525.94;5110191;28;20433;-60
2023/03/06 02:05:41;;;;;;;5.70;4.10;;;;;;;17.15;46.68;99523.13;5106408;28;20440;-59
2023/03/06 02:08:07;;;;;;;7.07;4.27;;;;;;;17.13;46.77;99509.25;5110096;28;20965;-59
2023/03/06 02:10:32;;;;;;;6.37;3.93;;;;;;;17.07;47.12;99516.53;5109585;28;20181;-59
2023/03/06 02:12:58;;;;;;;7.20;4.60;;;;;;;17.08;47.03;99506.75;5110135;28;20438;-60
2023/03/06 02:15:24;;;;;;;6.60;4.07;;;;;;;17.09;47.19;99508.41;5109496;28;20173;-60
2023/03/06 02:17:50;;;;;;;7.73;3.93;;;;;;;17.05;46.98;99506.72;5110070;28;20181;-60
2023/03/06 02:20:31;;;;;;;7.37;4.90;;;;;;;17.04;47.01;99505.91;5108632;28;20504;-60
2023/03/06 02:23:07;;;;;;;4.70;3.60;;;;;;;17.04;47.17;99499.38;5108176;28;20285;-60
2023/03/06 02:25:41;;;;;;;6.30;4.27;;;;;;;17.05;47.33;99504.69;5108797;28;20975;-60
2023/03/06 02:28:07;;;;;;;6.83;4.03;;;;;;;17.01;47.38;99495.25;5109105;28;20946;-59
2023/03/06 02:30:33;;;;;;;7.87;3.83;;;;;;;17.05;47.34;99493.28;5109882;28;20457;-60
2023/03/06 02:32:59;;;;;;;7.17;3.97;;;;;;;17.06;47.40;99497.75;5110057;28;20457;-60
2023/03/06 02:35:52;;;;;;;5.97;3.60;;;;;;;17.08;47.20;99501.06;5108880;28;20189;-59
2023/03/06 02:38:19;;;;;;;7.67;4.37;;;;;;;17.06;47.22;99492.06;5089701;28;20240;-60
2023/03/06 02:40:46;;;;;;;6.80;3.70;;;;;;;17.10;47.57;99483.56;5097771;28;20470;-59
2023/03/06 02:43:12;;;;;;;7.63;4.40;;;;;;;17.09;47.48;99485.59;5108713;28;20462;-60
2023/03/06 02:45:43;;;;;;;6.30;4.07;;;;;;;17.14;47.48;99488.09;5091028;28;21238;-59
2023/03/06 02:48:08;;;;;;;8.23;4.30;;;;;;;17.15;47.26;99483.22;5107741;28;20216;-60
2023/03/06 02:50:34;;;;;;;6.00;3.80;;;;;;;17.07;47.36;99479.47;5108077;28;20886;-60
2023/03/06 02:52:59;;;;;;;6.03;3.60;;;;;;;17.08;47.49;99472.53;5108711;28;20552;-60
2023/03/06 02:55:24;;;;;;;6.80;4.00;;;;;;;17.03;47.58;99475.75;5109845;28;20616;-59
2023/03/06 02:57:50;;;;;;;6.03;3.93;;;;;;;17.02;47.81;99478.97;5110540;28;20177;-60
2023/03/06 03:00:16;;;;;;;7.10;4.40;;;;;;;17.00;47.80;99479.38;5109312;28;20216;-59
2023/03/06 03:02:41;;;;;;;5.30;3.47;;;;;;;17.02;47.56;99473.28;5109755;28;20644;-59
2023/03/06 03:05:07;;;;;;;6.73;3.83;;;;;;;16.99;47.50;99463.47;5109174;28;20481;-59
2023/03/06 03:07:32;;;;;;;7.20;4.37;;;;;;;16.98;47.89;99458.16;5114085;28;20172;-60
2023/03/06 03:09:58;;;;;;;7.00;3.70;;;;;;;16.98;48.10;99449.59;5113141;28;20203;-60
2023/03/06 03:12:23;;;;;;;6.20;3.60;;;;;;;17.00;48.02;99448.00;5113885;28;20166;-60
2023/03/06 03:14:49;;;;;;;6.50;3.80;;;;;;;16.98;48.04;99450.44;5113462;28;20617;-59
2023/03/06 03:17:14;;;;;;;4.97;3.80;;;;;;;16.93;47.87;99450.78;5112508;28;20178;-60
2023/03/06 03:19:40;;;;;;;5.07;3.57;;;;;;;16.95;47.83;99454.06;5113639;28;20193;-59
2023/03/06 03:22:05;;;;;;;5.20;3.80;;;;;;;16.97;47.72;99454.50;5114210;27;20185;-59
2023/03/06 03:24:30;;;;;;;7.40;3.90;;;;;;;17.00;47.91;99458.59;5112207;28;20170;-59
2023/03/06 03:26:56;;;;;;;6.37;3.50;;;;;;;17.01;47.81;99455.34;5113428;28;20166;-60
2023/03/06 03:29:21;;;;;;;6.17;3.80;;;;;;;17.02;48.22;99462.72;5111370;28;20192;-60
2023/03/06 03:31:47;;;;;;;6.53;3.60;;;;;;;16.97;47.93;99445.94;5114007;27;20162;-60
2023/03/06 03:34:12;;;;;;;7.43;4.17;;;;;;;17.01;47.76;99448.84;5111784;28;20185;-59
2023/03/06 03:36:38;;;;;;;6.57;3.30;;;;;;;16.99;48.03;99443.53;5111311;28;20170;-59
2023/03/06 03:39:03;;;;;;;5.97;3.57;;;;;;;16.96;48.11;99447.13;5092127;28;20158;-60
2023/03/06 03:41:29;;;;;;;5.83;3.80;;;;;;;16.93;48.27;99439.38;5111104;28;20601;-60
2023/03/06 03:43:54;;;;;;;5.17;3.47;;;;;;;16.91;48.28;99441.78;5112045;28;20177;-60
2023/03/06 03:46:20;;;;;;;6.23;4.00;;;;;;;16.95;47.97;99427.59;5110285;28;20261;-60
2023/03/06 03:48:45;;;;;;;7.23;3.80;;;;;;;16.97;48.08;99439.41;5112664;28;20197;-60
2023/03/06 03:51:12;;;;;;;6.23;3.47;;;;;;;16.99;48.25;99436.97;5112105;28;20166;-60
2023/03/06 03:53:37;;;;;;;5.60;3.80;;;;;;;17.01;47.44;99432.53;5115271;27;20174;-60
2023/03/06 03:56:03;;;;;;;5.37;3.40;;;;;;;17.00;48.18;99430.91;5112866;28;20443;-60
2023/03/06 03:58:29;;;;;;;5.27;3.67;;;;;;;16.99;48.38;99429.25;5111988;28;20186;-60
2023/03/06 04:00:54;;;;;;;6.00;4.00;;;;;;;17.02;48.23;99433.38;5112816;28;20178;-60
2023/03/06 04:03:20;;;;;;;5.50;3.50;;;;;;;17.00;48.43;99418.69;5111694;28;20246;-60
2023/03/06 04:05:45;;;;;;;5.87;3.73;;;;;;;17.05;48.17;99421.19;5097711;28;20182;-60
2023/03/06 04:08:10;;;;;;;5.70;3.70;;;;;;;17.02;48.29;99422.78;5092231;28;20582;-60
2023/03/06 04:10:37;;;;;;;6.27;3.87;;;;;;;17.02;48.07;99417.09;5103885;28;20173;-60
2023/03/06 04:13:03;;;;;;;8.50;4.50;;;;;;;17.02;48.42;99411.38;5112344;28;20551;-60
2023/03/06 04:15:28;;;;;;;4.73;3.13;;;;;;;17.00;48.16;99413.78;5112121;28;20501;-60
2023/03/06 04:17:53;;;;;;;8.80;3.93;;;;;;;16.99;48.24;99409.31;5112473;28;20186;-61
2023/03/06 04:20:19;;;;;;;5.70;3.63;;;;;;;16.95;48.17;99411.28;5112309;28;20197;-60
2023/03/06 04:22:44;;;;;;;7.40;3.90;;;;;;;16.93;48.99;99408.03;5111962;28;20227;-61
2023/03/06 04:25:10;;;;;;;6.23;3.93;;;;;;;16.95;48.30;99414.16;5112662;28;20166;-60
2023/03/06 04:27:35;;;;;;;6.73;4.00;;;;;;;17.02;48.20;99411.38;5111451;28;20193;-60
2023/03/06 04:30:01;;;;;;;8.50;4.43;;;;;;;17.01;48.44;99420.31;5111789;28;20174;-60
2023/03/06 04:32:26;;;;;;;5.43;3.80;;;;;;;16.92;48.47;99414.13;5110595;28;20169;-60
2023/03/06 04:34:51;;;;;;;5.40;3.50;;;;;;;16.92;48.51;99411.25;5110949;28;20239;-61
2023/03/06 04:37:22;;;;;;;6.40;3.47;;;;;;;16.92;48.63;99411.25;5112106;28;20178;-60
2023/03/06 04:39:47;;;;;;;6.50;4.00;;;;;;;16.93;48.57;99416.59;5111319;28;20180;-60
2023/03/06 04:42:13;;;;;;;6.03;3.53;;;;;;;16.95;48.15;99417.00;5111937;28;20451;-60
2023/03/06 04:44:38;;;;;;;4.97;3.80;;;;;;;16.96;48.43;99407.22;5112224;27;20625;-60
2023/03/06 04:47:04;;;;;;;5.53;3.57;;;;;;;16.97;48.54;99408.88;5111013;27;20178;-60
2023/03/06 04:49:29;;;;;;;9.40;5.10;;;;;;;16.97;48.17;99405.22;5111609;28;20182;-60
2023/03/06 04:51:54;;;;;;;6.37;3.60;;;;;;;16.97;48.26;99400.34;5111357;28;20231;-60
2023/03/06 04:54:20;;;;;;;9.83;3.40;;;;;;;16.93;48.39;99402.31;5111867;28;20166;-60
2023/03/06 04:56:45;;;;;;;6.80;3.50;;;;;;;16.91;48.49;99404.72;5114089;27;20190;-60
2023/03/06 04:59:11;;;;;;;5.37;3.90;;;;;;;16.91;48.66;99403.94;5111014;28;20511;-60
2023/03/06 05:01:36;;;;;;;6.00;4.10;;;;;;;16.88;48.63;99396.97;5111853;28;20535;-60
2023/03/06 05:04:01;;;;;;;4.90;3.70;;;;;;;16.93;48.79;99401.50;5110728;28;20213;-60
2023/03/06 05:06:27;;;;;;;4.83;3.37;;;;;;;16.94;48.35;99403.97;5111310;28;20515;-60
2023/03/06 05:08:52;;;;;;;5.10;3.67;;;;;;;16.92;48.50;99394.16;5111315;28;20298;-60
2023/03/06 05:11:18;;;;;;;6.00;3.60;;;;;;;16.93;48.66;99399.47;5102359;28;20170;-60
2023/03/06 05:13:43;;;;;;;6.97;3.80;;;;;;;16.95;48.34;99402.75;5110742;28;20192;-60
2023/03/06 05:16:09;;;;;;;6.00;3.70;;;;;;;16.95;48.37;99399.88;5112008;28;20162;-60
2023/03/06 05:18:34;;;;;;;6.83;3.60;;;;;;;16.99;48.51;99394.22;5115641;27;20174;-60
2023/03/06 05:21:00;;;;;;;6.37;3.77;;;;;;;16.99;48.92;99394.22;5121674;27;20229;-60
2023/03/06 05:23:26;;;;;;;5.23;3.73;;;;;;;16.99;48.58;99392.19;5093502;28;20197;-60
2023/03/06 05:25:52;;;;;;;4.60;3.20;;;;;;;17.00;48.61;99396.69;5111666;28;20259;-60
2023/03/06 05:28:17;;;;;;;5.17;3.63;;;;;;;17.00;48.53;99396.69;5110808;27;20431;-60
2023/03/06 05:30:42;;;;;;;5.77;3.83;;;;;;;17.01;48.67;99386.91;5111620;28;20170;-60
2023/03/06 05:33:08;;;;;;;5.23;3.60;;;;;;;16.98;48.64;99387.72;5110234;28;20177;-59
2023/03/06 05:35:33;;;;;;;4.83;3.30;;;;;;;16.95;48.69;99381.97;5113152;27;20242;-59
2023/03/06 05:37:59;;;;;;;5.77;3.80;;;;;;;16.94;48.92;99381.16;5110692;28;20162;-59
2023/03/06 05:40:24;;;;;;;5.00;3.10;;;;;;;16.95;48.85;99379.94;5110253;28;20185;-59
2023/03/06 05:42:49;;;;;;;7.23;3.53;;;;;;;16.98;48.35;99381.19;5110722;28;20192;-59
2023/03/06 05:45:15;;;;;;;8.80;3.60;;;;;;;16.94;48.83;99378.31;5110761;28;20181;-59
2023/03/06 05:47:40;;;;;;;5.43;2.90;;;;;;;16.88;48.82;99382.72;5110428;28;20523;-59
2023/03/06 05:50:07;;;;;;;5.73;3.70;;;;;;;16.89;48.73;99384.34;5110897;28;20532;-59
2023/03/06 05:52:32;;;;;;;5.80;3.73;;;;;;;16.90;48.85;99380.28;5109516;28;21765;-59
2023/03/06 05:54:58;;;;;;;5.63;3.27;;;;;;;16.91;48.68;99379.06;5110426;28;20469;-60
2023/03/06 05:57:23;;;;;;;6.33;4.03;;;;;;;16.95;48.72;99388.50;5110545;28;20170;-59
2023/03/06 05:59:49;;;;;;;7.90;3.47;;;;;;;16.96;48.74;99384.41;5110440;28;20183;-60
2023/03/06 06:02:15;;;;;;;4.97;3.23;;;;;;;16.96;48.53;99384.41;5093859;28;20220;-60
2023/03/06 06:04:40;;;;;;;5.13;3.20;;;;;;;16.98;48.31;99384.88;5110247;28;20209;-59
2023/03/06 06:07:06;;;;;;;6.57;3.70;;;;;;;16.96;48.54;99380.75;5109764;28;20178;-60
2023/03/06 06:09:31;;;;;;;5.90;3.77;;;;;;;16.96;48.51;99387.28;5108938;28;20229;-59
2023/03/06 06:11:59;;;;;;;5.90;3.60;;;;;;;16.96;48.64;99384.41;5109191;28;20161;-59
2023/03/06 06:14:24;;;;;;;7.30;4.13;;;;;;;16.96;48.65;99392.16;5109420;28;20185;-60
2023/03/06 06:16:50;;;;;;;4.60;3.47;;;;;;;16.94;48.78;99391.72;5110221;28;20396;-60
2023/03/06 06:19:18;;;;;;;5.73;3.67;;;;;;;16.92;49.07;99392.13;5110350;28;20177;-60
2023/03/06 06:21:45;;;;;;;5.73;3.50;;;;;;;16.90;48.73;99386.00;5110089;28;20217;-59
2023/03/06 06:24:11;;;;;;;5.43;3.60;;;;;;;16.92;48.97;99392.13;5109740;28;20415;-60
2023/03/06 06:26:37;;;;;;;4.03;2.90;;;;;;;16.91;48.87;99387.63;5106500;28;20435;-60
2023/03/06 06:29:03;;;;;;;5.20;3.30;;;;;;;16.91;48.75;99395.38;5106669;28;20185;-60
2023/03/06 06:31:29;;;;;;;4.90;3.50;;;;;;;16.98;48.59;99398.28;5107730;28;20174;-60
2023/03/06 06:33:54;;;;;;;6.50;3.93;;;;;;;16.96;49.19;99395.81;5105927;28;20442;-60
2023/03/06 06:36:19;;;;;;;4.20;2.70;;;;;;;16.99;48.90;99397.91;5109887;28;20166;-60
2023/03/06 06:38:45;;;;;;;5.63;3.40;;;;;;;17.00;48.64;99401.59;5109618;28;20177;-60
2023/03/06 06:41:11;;;;;;;4.67;3.10;;;;;;;16.93;48.56;99399.47;5109642;28;20207;-60
2023/03/06 06:43:36;;;;;;;4.43;3.43;;;;;;;16.93;48.86;99396.63;5107924;28;20192;-60
2023/03/06 06:46:02;;;;;;;6.10;3.77;;;;;;;16.93;48.72;99408.03;5108622;28;20166;-60
2023/03/06 06:48:28;;;;;;;5.10;3.20;;;;;;;16.88;49.04;99408.38;5108709;28;20269;-60
2023/03/06 06:50:56;;;;;;;6.10;4.00;;;;;;;16.93;49.25;99413.72;5128713;27;20491;-60
2023/03/06 06:53:22;;;;;;;5.93;3.50;;;;;;;16.92;49.00;99422.66;5129204;27;20827;-60
2023/03/06 06:55:47;;;;;;;4.20;3.17;;;;;;;16.91;48.75;99421.84;5113795;27;20439;-60
2023/03/06 06:58:13;;;;;;;5.80;3.83;;;;;;;17.01;48.52;99429.69;5109733;28;20189;-60
2023/03/06 07:00:38;;;;;;;4.90;3.50;;;;;;;16.93;48.70;99430.84;5108856;28;20217;-60
2023/03/06 07:03:04;;;;;;;5.70;3.13;;;;;;;16.89;48.71;99424.28;5109726;28;20184;-60
2023/03/06 07:05:29;;;;;;;5.50;3.73;;;;;;;16.90;48.91;99428.75;5109536;28;20246;-60
2023/03/06 07:07:54;;;;;;;5.30;3.63;;;;;;;16.90;49.03;99431.59;5108149;28;20237;-60
2023/03/06 07:10:20;;;;;;;5.30;3.50;;;;;;;16.94;48.69;99425.94;5109078;28;20186;-60
2023/03/06 07:12:45;;;;;;;5.90;3.53;;;;;;;16.93;48.54;99430.84;5109443;28;20181;-60
2023/03/06 07:15:12;;;;;;;4.97;3.50;;;;;;;16.98;48.75;99427.63;5107210;28;20188;-60
2023/03/06 07:17:38;;;;;;;5.07;3.40;;;;;;;16.97;48.60;99428.84;5089243;28;20167;-60
2023/03/06 07:20:05;;;;;;;5.03;3.13;;;;;;;16.96;48.61;99435.75;5089010;28;21173;-60
2023/03/06 07:22:31;;;;;;;4.20;3.10;;;;;;;16.95;48.45;99445.50;5108628;28;20570;-60
2023/03/06 07:24:56;;;;;;;7.07;3.73;;;;;;;16.94;48.84;99437.34;5110461;28;20509;-60
2023/03/06 07:27:22;;;;;;;5.90;3.40;;;;;;;16.89;48.80;99440.53;5108293;28;20190;-60
2023/03/06 07:29:48;;;;;;;5.00;3.33;;;;;;;16.89;49.16;99441.38;5109480;28;20535;-61
2023/03/06 07:32:13;;;;;;;5.83;3.40;;;;;;;16.92;48.85;99440.59;5090292;28;20174;-60
2023/03/06 07:34:38;;;;;;;4.30;3.00;;;;;;;16.96;48.76;99437.78;5108524;28;20182;-60
2023/03/06 07:37:04;;;;;;;5.70;3.30;;;;;;;16.93;48.96;99447.94;5108345;28;20208;-61
2023/03/06 07:39:29;;;;;;;5.50;3.50;;;;;;;16.93;49.16;99435.72;5107379;28;20189;-60
2023/03/06 07:41:55;;;;;;;6.13;3.40;;;;;;;16.93;48.62;99432.84;5108752;28;20242;-60
2023/03/06 07:44:21;;;;;;;6.60;3.67;;;;;;;16.90;49.11;99451.56;5108055;28;20177;-60
2023/03/06 07:46:46;;;;;;;5.30;3.70;;;;;;;16.90;48.97;99448.72;5109197;28;20213;-60
2023/03/06 07:49:11;;;;;;;5.90;3.67;;;;;;;16.91;49.31;99441.78;5109227;28;20166;-60
2023/03/06 07:51:37;;;;;;;4.80;3.63;;;;;;;16.98;48.93;99444.75;5106735;28;20521;-60
2023/03/06 07:54:02;;;;;;;4.37;3.07;;;;;;;16.96;48.97;99438.59;5115021;27;20536;-60
2023/03/06 07:56:28;;;;;;;7.53;3.70;;;;;;;17.05;48.56;99444.81;5133520;27;20652;-60
2023/03/06 07:58:53;;;;;;;3.63;2.90;;;;;;;17.03;48.64;99444.38;5124749;27;20621;-60
2023/03/06 08:01:19;;;;;;;5.43;3.20;;;;;;;16.97;48.73;99440.25;5101084;28;20705;-60
2023/03/06 08:03:45;;;;;;;5.50;3.30;;;;;;;16.91;49.07;99450.34;5109151;28;20198;-60
2023/03/06 08:06:15;;;;;;;4.93;3.63;;;;;;;16.90;49.08;99445.84;5111158;28;20427;-60
2023/03/06 08:08:41;;;;;;;6.53;3.23;;;;;;;16.99;49.09;99449.22;5112612;28;20229;-60
2023/03/06 08:11:07;;;;;;;4.87;3.50;;;;;;;16.98;49.01;99444.75;5112584;28;20946;-61
2023/03/06 08:13:34;;;;;;;4.90;3.33;;;;;;;16.93;48.92;99453.66;5111129;28;20451;-61
2023/03/06 08:16:00;;;;;;;5.47;3.63;;;;;;;16.93;49.07;99455.66;5112584;28;20468;-60
2023/03/06 08:18:26;;;;;;;6.67;4.07;;;;;;;16.92;49.13;99452.00;5111724;28;20259;-60
2023/03/06 08:21:12;;;;;;;6.03;3.73;;;;;;;16.94;48.93;99458.13;5112214;28;20202;-60
2023/03/06 08:23:38;;;;;;;6.13;3.77;;;;;;;16.95;48.92;99451.22;5109790;28;20526;-60
2023/03/06 08:26:05;;;;;;;5.10;3.67;;;;;;;16.92;48.96;99449.16;5112389;28;20458;-60
2023/03/06 08:28:31;;;;;;;6.20;3.73;;;;;;;16.97;48.83;99453.69;5112090;28;20185;-60
2023/03/06 08:30:56;;;;;;;5.00;3.33;;;;;;;16.97;49.02;99445.94;5111177;28;20454;-60
2023/03/06 08:33:22;;;;;;;5.90;3.10;;;;;;;16.93;48.89;99442.25;5109786;28;20178;-60
2023/03/06 08:35:47;;;;;;;4.93;3.33;;;;;;;16.92;48.97;99449.16;5111285;28;20234;-60
2023/03/06 08:38:13;;;;;;;4.80;3.30;;;;;;;16.93;49.07;99449.97;5109318;28;20189;-60
2023/03/06 08:40:38;;;;;;;4.70;3.30;;;;;;;16.92;49.13;99449.16;5109807;28;20217;-60
2023/03/06 08:43:04;;;;;;;9.53;3.17;;;;;;;16.92;49.13;99452.00;5110272;28;20174;-60
2023/03/06 08:45:29;;;;;;;4.93;2.90;;;;;;;16.91;49.02;99458.91;5108311;28;20185;-60
2023/03/06 08:47:55;;;;;;;5.77;3.50;;;;;;;16.93;49.27;99465.03;5109706;28;20188;-61
2023/03/06 08:50:21;;;;;;;4.73;3.00;;;;;;;16.91;48.98;99461.75;5110761;28;20174;-60
2023/03/06 08:52:46;;;;;;;4.97;3.40;;;;;;;16.88;49.31;99458.88;5111461;28;20644;-60
2023/03/06 08:55:12;;;;;;;4.67;3.00;;;;;;;16.96;48.97;99463.44;5102387;28;20629;-60
2023/03/06 08:57:37;;;;;;;4.53;3.20;;;;;;;17.01;48.72;99466.75;5103201;28;20880;-60
2023/03/06 09:00:07;;;;;;;4.13;3.10;;;;;;;16.93;49.10;99459.34;5114300;27;20226;-60
2023/03/06 09:02:33;;;;;;;4.70;3.30;;;;;;;16.92;49.18;99454.84;5110282;28;20216;-60
2023/03/06 09:05:00;;;;;;;5.07;3.07;;;;;;;16.89;49.21;99464.19;5102713;28;20476;-60
2023/03/06 09:07:25;;;;;;;3.97;2.70;;;;;;;16.89;49.43;99467.03;5089196;28;20177;-60
2023/03/06 09:09:54;;;;;;;5.10;2.83;;;;;;;16.87;49.32;99469.47;5094437;28;20436;-60
2023/03/06 09:12:20;;;;;;;5.47;3.33;;;;;;;16.89;49.26;99472.72;5109798;28;20629;-60
2023/03/06 09:14:45;;;;;;;5.20;3.30;;;;;;;16.86;49.27;99472.69;5111493;28;20484;-60
2023/03/06 09:17:11;;;;;;;5.37;3.23;;;;;;;16.87;49.29;99466.63;5111148;28;20174;-60
2023/03/06 09:19:37;;;;;;;4.67;3.10;;;;;;;16.89;49.15;99474.75;5110589;27;20201;-60
2023/03/06 09:22:02;;;;;;;5.60;3.07;;;;;;;16.90;49.05;99471.53;5111201;28;20237;-60
2023/03/06 09:24:28;;;;;;;6.30;3.83;;;;;;;16.90;49.13;99471.53;5110843;28;20849;-61
2023/03/06 09:26:53;;;;;;;5.10;3.10;;;;;;;16.97;48.90;99465.91;5111093;28;20597;-60
2023/03/06 09:29:18;;;;;;;4.63;3.63;;;;;;;16.89;49.09;99467.03;5111015;27;20177;-60
2023/03/06 09:31:44;;;;;;;4.50;3.43;;;;;;;16.88;49.13;99473.13;5113647;27;20173;-60
2023/03/06 09:34:09;;;;;;;5.80;3.90;;;;;;;16.92;49.25;99473.97;5110164;28;20265;-60
2023/03/06 09:36:35;;;;;;;5.67;2.93;;;;;;;16.97;49.13;99465.91;5110224;28;20242;-60
2023/03/06 09:39:00;;;;;;;5.07;3.07;;;;;;;16.94;49.09;99472.38;5113226;27;20193;-60
2023/03/06 09:41:36;;;;;;;5.53;3.30;;;;;;;16.96;48.79;99474.84;5110017;28;20353;-60
2023/03/06 09:44:07;;;;;;;4.90;3.37;;;;;;;16.96;49.04;99469.16;5111057;28;20507;-60
2023/03/06 09:46:45;;;;;;;5.03;3.27;;;;;;;17.02;48.83;99471.25;5108405;28;20436;-61
2023/03/06 09:49:24;;;;;;;5.23;3.23;;;;;;;16.98;48.72;99473.25;5102331;28;20472;-60
2023/03/06 09:52:15;;;;;;;5.37;3.30;;;;;;;16.95;48.90;99474.03;5110857;28;20434;-60
2023/03/06 09:54:52;;;;;;;4.57;2.90;;;;;;;16.89;49.02;99469.06;5108250;28;20484;-60
2023/03/06 09:57:22;;;;;;;4.57;3.00;;;;;;;16.91;49.09;99478.06;5109189;28;20823;-60
2023/03/06 09:59:49;;;;;;;4.33;2.90;;;;;;;16.90;49.41;99471.53;5108947;28;20820;-60
2023/03/06 10:02:36;;;;;;;4.30;3.43;;;;;;;16.92;49.18;99469.13;5091029;28;20540;-60
2023/03/06 10:05:02;;;;;;;6.00;3.43;;;;;;;16.91;49.30;99470.31;5112602;27;20537;-60
2023/03/06 10:07:45;;;;;;;5.63;3.90;;;;;;;16.94;49.20;99480.09;5108193;28;21323;-60
2023/03/06 10:10:19;;;;;;;3.67;2.80;;;;;;;16.96;49.00;99484.22;5088955;28;20408;-60
2023/03/06 10:13:08;;;;;;;5.23;3.57;;;;;;;17.01;48.80;99483.06;5088561;28;20424;-60
2023/03/06 10:15:34;;;;;;;4.87;3.70;;;;;;;17.05;48.97;99479.00;5107600;28;20454;-61
2023/03/06 10:18:01;;;;;;;4.90;3.60;;;;;;;17.06;49.03;99480.66;5109114;28;20867;-61
2023/03/06 10:20:28;;;;;;;4.40;3.37;;;;;;;17.01;48.99;99478.16;5109451;28;20555;-61
2023/03/06 10:23:09;;;;;;;4.80;3.30;;;;;;;16.94;49.35;99471.56;5091669;28;20509;-61
2023/03/06 10:25:42;;;;;;;5.27;3.17;;;;;;;16.92;49.41;99468.28;5109013;28;20431;-60
2023/03/06 10:28:16;;;;;;;6.33;3.30;;;;;;;16.92;49.12;99477.66;5090702;28;20411;-61
2023/03/06 10:31:00;;;;;;;5.03;3.77;;;;;;;16.89;49.57;99469.06;5110609;28;20404;-60
2023/03/06 10:33:37;;;;;;;4.40;3.00;;;;;;;16.91;49.17;99473.16;5108055;28;20439;-61
2023/03/06 10:36:03;;;;;;;5.37;3.30;;;;;;;16.91;49.44;99463.78;5109914;28;20418;-61
2023/03/06 10:38:28;;;;;;;4.80;3.33;;;;;;;16.91;49.10;99456.03;5108908;28;20439;-61
2023/03/06 10:41:07;;;;;;;4.43;3.40;;;;;;;16.89;49.54;99458.47;5109771;28;20552;-61
2023/03/06 10:43:33;;;;;;;4.70;3.40;;;;;;;16.99;49.16;99459.78;5107963;28;20226;-61
2023/03/06 10:45:59;;;;;;;4.00;2.67;;;;;;;16.91;49.16;99456.03;5109279;28;20427;-61
2023/03/06 10:48:26;;;;;;;5.53;3.53;;;;;;;16.92;49.46;99459.72;5110083;28;20181;-60
2023/03/06 10:50:53;;;;;;;4.90;2.93;;;;;;;16.93;49.39;99459.34;5109385;28;20298;-60
2023/03/06 10:53:27;;;;;;;8.50;3.37;;;;;;;16.96;49.15;99447.13;5123112;28;20588;-61
2023/03/06 10:55:57;;;;;;;5.17;3.80;;;;;;;16.98;49.10;99458.16;5130550;27;20405;-60
2023/03/06 10:58:29;;;;;;;5.60;3.40;;;;;;;16.97;49.57;99453.69;5103478;28;20439;-61
2023/03/06 11:01:06;;;;;;;4.13;2.80;;;;;;;16.98;49.13;99455.31;5109601;28;20504;-60
2023/03/06 11:03:33;;;;;;;4.97;3.03;;;;;;;17.00;49.10;99444.34;5108921;28;20451;-61
2023/03/06 11:06:06;;;;;;;4.40;3.20;;;;;;;16.94;49.07;99449.56;5109945;28;20473;-61
2023/03/06 11:08:32;;;;;;;8.47;3.40;;;;;;;16.98;49.16;99456.13;5108111;28;20487;-61
2023/03/06 11:10:59;;;;;;;5.37;3.00;;;;;;;16.94;49.42;99460.16;5109560;28;20414;-60
2023/03/06 11:13:26;;;;;;;4.83;2.80;;;;;;;16.91;49.19;99455.25;5107542;28;20250;-60
2023/03/06 11:16:29;;;;;;;4.20;2.70;;;;;;;16.91;49.22;99444.66;5108367;28;20411;-60
2023/03/06 11:19:06;;;;;;;5.40;3.23;;;;;;;16.92;49.26;99451.19;5105753;28;20438;-61
2023/03/06 11:21:33;;;;;;;6.07;3.33;;;;;;;16.94;49.25;99443.03;5090551;28;20458;-61
2023/03/06 11:24:07;;;;;;;5.50;3.10;;;;;;;16.94;49.31;99448.75;5108619;28;20422;-61
2023/03/06 11:26:36;;;;;;;5.10;3.33;;;;;;;16.96;49.00;99447.13;5108224;28;20504;-60
2023/03/06 11:29:16;;;;;;;4.47;3.20;;;;;;;16.97;49.07;99440.25;5113422;28;20794;-61
2023/03/06 11:31:47;;;;;;;5.00;2.83;;;;;;;17.02;49.39;99441.91;5112026;28;20412;-61
2023/03/06 11:34:18;;;;;;;4.53;3.30;;;;;;;17.05;48.76;99444.00;5111120;28;21183;-61